KAKR/AKR METAR and TAF weather

Enter ICAO airport designator
Station Type Date Time Source
KAKR METAR 2020/07/06 22:54 UTC NOAA

KAKR 062254Z AUTO 03007KT 10SM CLR 34/14 A3000 RMK AO2 SLP147 T03390144


Station Type Date Time Source
KAKR Decoded METAR 2020/07/06 22:54 UTC NOAA

AKRON FULTON INTERNATIONAL, OH, United States (KAKR) 41-02N 081-28W 363M
Jul 06, 2020 - 06:54 PM EDT / 2020.07.06 2254 UTC
Wind: from the NNE (030 degrees) at 8 MPH (7 KT):0
Visibility: 10 mile(s):0
Sky conditions: clear
Temperature: 93.0 F (33.9 C)
Dew Point: 57.9 F (14.4 C)
Relative Humidity: 30%
Pressure (altimeter): 30 in. Hg (1015 hPa)
ob: KAKR 062254Z AUTO 03007KT 10SM CLR 34/14 A3000 RMK AO2 SLP147 T03390144
cycle: 23

Station Type Date Time Source
KAKR TAF UTC NOAA

Error!

Example: see airport list